createdAt,value
2019-01-22T00:00:04.132Z,99.99
2019-01-22T00:01:04.158Z,99.99
2019-01-22T00:02:05.174Z,99.99
2019-01-22T00:03:05.949Z,99.99
2019-01-22T00:04:06.680Z,99.99
2019-01-22T00:05:07.539Z,99.99
2019-01-22T00:06:08.538Z,99.99
2019-01-22T00:07:08.738Z,99.99
2019-01-22T00:08:09.499Z,99.99
2019-01-22T00:09:09.958Z,99.99
2019-01-22T00:10:10.687Z,99.99
2019-01-22T00:11:11.160Z,99.99
2019-01-22T00:12:12.193Z,99.99
2019-01-22T00:13:12.663Z,99.99
2019-01-22T00:14:13.375Z,99.99
2019-01-22T00:15:14.712Z,99.99
2019-01-22T00:16:14.664Z,99.99
2019-01-22T00:17:15.114Z,99.99
2019-01-22T00:18:15.571Z,99.99
2019-01-22T00:19:16.312Z,99.99
2019-01-22T00:20:16.738Z,99.99
2019-01-22T00:21:18.176Z,99.99
2019-01-22T00:22:19.344Z,99.99
2019-01-22T00:23:19.839Z,99.99
2019-01-22T00:24:21.117Z,99.99
2019-01-22T00:25:21.736Z,99.99
2019-01-22T00:26:22.206Z,99.99
2019-01-22T00:27:23.657Z,99.99
2019-01-22T00:28:25.376Z,99.99
2019-01-22T00:29:24.679Z,99.99
2019-01-22T00:30:25.254Z,99.99
2019-01-22T00:31:26.281Z,99.99
2019-01-22T00:32:27.450Z,99.99
2019-01-22T00:33:29.195Z,99.99
2019-01-22T00:34:29.945Z,99.99
2019-01-22T00:35:30.910Z,99.99
2019-01-22T00:36:31.626Z,99.65
2019-01-22T00:37:32.075Z,99.75
2019-01-22T00:38:33.057Z,99.99
2019-01-22T00:39:33.504Z,99.75
2019-01-22T00:40:34.510Z,99.99
2019-01-22T00:41:35.011Z,99.99
2019-01-22T00:42:36.137Z,99.99
2019-01-22T00:43:37.151Z,99.99
2019-01-22T00:44:37.480Z,99.99
2019-01-22T00:45:38.533Z,99.99
2019-01-22T00:46:38.973Z,99.99
2019-01-22T00:47:40.400Z,99.99
2019-01-22T00:48:41.155Z,99.99
2019-01-22T00:49:41.326Z,99.99
2019-01-22T00:50:42.525Z,99.99
2019-01-22T00:51:42.971Z,99.99
2019-01-22T00:52:44.802Z,99.99
2019-01-22T00:53:44.727Z,99.99
2019-01-22T00:54:45.441Z,99.99
2019-01-22T00:55:46.371Z,99.99
2019-01-22T00:56:46.843Z,99.99
2019-01-22T00:57:47.017Z,99.99
2019-01-22T00:58:47.490Z,99.99
2019-01-22T00:59:47.712Z,99.99
2019-01-22T01:00:48.429Z,99.99
2019-01-22T01:01:49.446Z,99.99
2019-01-22T01:02:50.081Z,99.99
2019-01-22T01:03:50.550Z,99.99
2019-01-22T01:04:51.542Z,99.99
2019-01-22T01:05:52.705Z,99.99
2019-01-22T01:06:53.157Z,99.99
2019-01-22T01:07:54.327Z,99.99
2019-01-22T01:08:55.047Z,99.99
2019-01-22T01:09:55.831Z,99.99
2019-01-22T01:10:57.237Z,99.99
2019-01-22T01:11:57.312Z,99.99
2019-01-22T01:12:58.040Z,99.99
2019-01-22T01:13:59.051Z,99.99
2019-01-22T01:14:59.770Z,99.99
2019-01-22T01:16:00.023Z,99.99
2019-01-22T01:17:01.474Z,99.99
2019-01-22T01:18:01.912Z,99.99
2019-01-22T01:19:03.071Z,99.99
2019-01-22T01:20:04.379Z,99.99
2019-01-22T01:21:05.117Z,99.99
2019-01-22T01:22:05.566Z,99.99
2019-01-22T01:23:06.725Z,99.99
2019-01-22T01:24:07.899Z,99.99
2019-01-22T01:25:08.475Z,99.99
2019-01-22T01:26:08.680Z,99.99
2019-01-22T01:27:09.710Z,99.99
2019-01-22T01:28:10.734Z,99.99
2019-01-22T01:29:10.894Z,99.99
2019-01-22T01:30:11.769Z,99.99
2019-01-22T01:31:12.248Z,99.99
2019-01-22T01:32:12.713Z,99.84
2019-01-22T01:33:13.488Z,99.84
2019-01-22T01:34:13.686Z,99.94
2019-01-22T01:35:14.137Z,99.99
2019-01-22T01:36:14.781Z,99.65
2019-01-22T01:37:15.741Z,99.65
2019-01-22T01:38:15.877Z,99.56
2019-01-22T01:39:17.033Z,99.99
2019-01-22T01:40:17.481Z,99.99
2019-01-22T01:41:18.567Z,99.75
2019-01-22T01:42:19.608Z,99.84
2019-01-22T01:43:20.340Z,99.75
2019-01-22T01:44:20.787Z,99.99
2019-01-22T01:45:21.226Z,99.99
2019-01-22T01:46:23.139Z,99.99
2019-01-22T01:47:22.941Z,99.75
2019-01-22T01:48:23.115Z,99.94
2019-01-22T01:49:23.855Z,99.84
2019-01-22T01:50:24.602Z,99.84
2019-01-22T01:51:25.336Z,99.84
2019-01-22T01:52:25.807Z,99.65
2019-01-22T01:53:26.826Z,99.75
2019-01-22T01:54:27.277Z,99.65
2019-01-22T01:55:28.620Z,99.56
2019-01-22T01:56:28.165Z,99.46
2019-01-22T01:57:29.005Z,98.9
2019-01-22T01:58:29.750Z,99.84
2019-01-22T01:59:30.535Z,99.65
2019-01-22T02:00:30.978Z,99.65
2019-01-22T02:01:31.150Z,99.75
2019-01-22T02:02:31.859Z,99.56
2019-01-22T02:03:32.863Z,99.84
2019-01-22T02:04:33.345Z,99.46
2019-01-22T02:05:34.259Z,99.75
2019-01-22T02:06:34.870Z,99.99
2019-01-22T02:07:35.327Z,99.75
2019-01-22T02:08:36.038Z,99.65
2019-01-22T02:09:36.784Z,99.99
2019-01-22T02:10:37.498Z,99.99
2019-01-22T02:11:37.490Z,99.84
2019-01-22T02:12:38.640Z,99.65
2019-01-22T02:13:38.869Z,99.99
2019-01-22T02:14:39.869Z,99.84
2019-01-22T02:15:39.876Z,99.65
2019-01-22T02:16:41.076Z,99.84
2019-01-22T02:17:41.814Z,99.94
2019-01-22T02:18:42.583Z,99.99
2019-01-22T02:19:42.884Z,99.75
2019-01-22T02:20:43.343Z,99.84
2019-01-22T02:21:44.697Z,99.65
2019-01-22T02:22:44.810Z,99.94
2019-01-22T02:23:45.254Z,99.65
2019-01-22T02:24:46.259Z,98.9
2019-01-22T02:25:46.966Z,99.08
2019-01-22T02:26:47.413Z,99.08
2019-01-22T02:27:48.429Z,98.9
2019-01-22T02:28:49.886Z,98.99
2019-01-22T02:29:50.343Z,99.08
2019-01-22T02:30:51.786Z,99.08
2019-01-22T02:31:53.392Z,98.9
2019-01-22T02:32:53.914Z,98.61
2019-01-22T02:33:54.642Z,98.71
2019-01-22T02:34:55.143Z,99.08
2019-01-22T02:35:55.614Z,99.65
2019-01-22T02:36:56.297Z,98.9
2019-01-22T02:37:56.591Z,98.99
2019-01-22T02:38:57.319Z,99.56
2019-01-22T02:39:58.172Z,99.84
2019-01-22T02:40:59.988Z,99.84
2019-01-22T02:42:00.390Z,99.94
2019-01-22T02:43:00.861Z,99.46
2019-01-22T02:44:01.873Z,99.18
2019-01-22T02:45:02.884Z,98.9
2019-01-22T02:46:03.606Z,99.08
2019-01-22T02:47:04.853Z,99.37
2019-01-22T02:48:05.579Z,98.99
2019-01-22T02:49:06.596Z,98.71
2019-01-22T02:50:08.416Z,99.27
2019-01-22T02:51:08.087Z,99.18
2019-01-22T02:52:09.361Z,99.22
2019-01-22T02:53:10.141Z,99.27
2019-01-22T02:54:11.178Z,99.08
2019-01-22T02:55:11.219Z,99.32
2019-01-22T02:56:12.223Z,99.56
2019-01-22T02:57:12.576Z,98.85
2019-01-22T02:58:13.043Z,98.28
2019-01-22T02:59:14.051Z,98.38
2019-01-22T03:00:14.040Z,99.27
2019-01-22T03:01:14.805Z,98.9
2019-01-22T03:02:15.243Z,99.18
2019-01-22T03:03:16.293Z,99.27
2019-01-22T03:04:17.735Z,99.08
2019-01-22T03:05:18.448Z,98.9
2019-01-22T03:06:19.026Z,99.08
2019-01-22T03:07:18.928Z,99.27
2019-01-22T03:08:20.322Z,98.85
2019-01-22T03:09:21.324Z,99.18
2019-01-22T03:10:21.812Z,98.85
2019-01-22T03:11:21.989Z,98.85
2019-01-22T03:12:22.441Z,98.75
2019-01-22T03:13:23.179Z,98.85
2019-01-22T03:14:23.921Z,98.47
2019-01-22T03:15:24.722Z,98.38
2019-01-22T03:16:24.932Z,98.94
2019-01-22T03:17:25.657Z,98.47
2019-01-22T03:18:26.661Z,98.75
2019-01-22T03:19:26.980Z,98.85
2019-01-22T03:20:27.706Z,98.47
2019-01-22T03:21:28.875Z,98.75
2019-01-22T03:22:29.075Z,98.66
2019-01-22T03:23:29.498Z,98.47
2019-01-22T03:24:29.943Z,98.57
2019-01-22T03:25:30.675Z,98.75
2019-01-22T03:26:31.742Z,98.66
2019-01-22T03:27:32.887Z,98.28
2019-01-22T03:28:33.520Z,98.19
2019-01-22T03:29:34.536Z,98.28
2019-01-22T03:30:35.837Z,98.47
2019-01-22T03:31:36.885Z,98
2019-01-22T03:32:37.083Z,98.1
2019-01-22T03:33:37.249Z,97.62
2019-01-22T03:34:38.007Z,97.81
2019-01-22T03:35:38.724Z,97.43
2019-01-22T03:36:39.952Z,97.81
2019-01-22T03:37:39.741Z,98.1
2019-01-22T03:38:40.709Z,98.47
2019-01-22T03:39:41.439Z,98.85
2019-01-22T03:40:42.135Z,98.47
2019-01-22T03:41:42.828Z,98.38
2019-01-22T03:42:43.802Z,98.66
2019-01-22T03:43:44.043Z,99.04
2019-01-22T03:44:44.734Z,98.66
2019-01-22T03:45:45.950Z,98.94
2019-01-22T03:46:46.252Z,99.08
2019-01-22T03:47:46.658Z,98.66
2019-01-22T03:48:47.086Z,98.85
2019-01-22T03:49:48.337Z,98.19
2019-01-22T03:50:48.309Z,98.71
2019-01-22T03:51:48.999Z,98.19
2019-01-22T03:52:49.295Z,98.47
2019-01-22T03:53:54.810Z,98.33
2019-01-22T03:54:02.376Z,98.33
2019-01-22T03:55:02.806Z,98.61
2019-01-22T03:56:03.939Z,98.99
2019-01-22T03:57:05.755Z,99.37
2019-01-22T03:58:06.724Z,99.65
2019-01-22T03:59:07.018Z,99.08
2019-01-22T04:00:07.719Z,99.46
2019-01-22T04:01:08.148Z,99.46
2019-01-22T04:02:09.125Z,99.08
2019-01-22T04:03:10.382Z,98.8
2019-01-22T04:04:10.790Z,99.75
2019-01-22T04:05:11.731Z,99.75
2019-01-22T04:06:12.154Z,99.99
2019-01-22T04:07:13.847Z,99.99
2019-01-22T04:08:13.462Z,99.99
2019-01-22T04:09:14.751Z,99.84
2019-01-22T04:10:15.439Z,99.04
2019-01-22T04:11:16.128Z,99.41
2019-01-22T04:12:17.372Z,99.08
2019-01-22T04:13:18.068Z,99.22
2019-01-22T04:14:18.771Z,98.75
2019-01-22T04:15:19.431Z,98.85
2019-01-22T04:16:20.676Z,98.66
2019-01-22T04:17:20.420Z,98.66
2019-01-22T04:18:20.685Z,98.75
2019-01-22T04:19:21.159Z,99.37
2019-01-22T04:20:22.415Z,98.9
2019-01-22T04:21:23.400Z,99.18
2019-01-22T04:22:23.833Z,99.08
2019-01-22T04:23:24.804Z,99.46
2019-01-22T04:24:25.497Z,99.46
2019-01-22T04:25:27.164Z,98.99
2019-01-22T04:26:27.421Z,98.9
2019-01-22T04:27:28.669Z,98.99
2019-01-22T04:28:28.636Z,99.27
2019-01-22T04:29:29.330Z,99.18
2019-01-22T04:30:30.309Z,99.75
2019-01-22T04:31:30.727Z,99.84
2019-01-22T04:32:31.438Z,99.99
2019-01-22T04:33:32.856Z,99.99
2019-01-22T04:34:33.325Z,99.94
2019-01-22T04:35:35.451Z,99.65
2019-01-22T04:36:36.141Z,99.99
2019-01-22T04:37:36.831Z,99.99
2019-01-22T04:38:37.843Z,99.99
2019-01-22T04:39:38.275Z,99.99
2019-01-22T04:40:38.706Z,99.99
2019-01-22T04:41:40.403Z,99.99
2019-01-22T04:42:40.969Z,99.99
2019-01-22T04:43:41.697Z,99.99
2019-01-22T04:44:42.936Z,99.99
2019-01-22T04:45:43.621Z,99.99
2019-01-22T04:46:44.750Z,99.99
2019-01-22T04:47:45.164Z,99.99
2019-01-22T04:48:45.899Z,99.99
2019-01-22T04:49:47.621Z,99.99
2019-01-22T04:50:48.051Z,99.75
2019-01-22T04:51:48.750Z,99.99
2019-01-22T04:52:49.453Z,99.7
2019-01-22T04:53:49.886Z,99.6
2019-01-22T04:54:51.322Z,99.98
2019-01-22T04:55:51.402Z,99.7
2019-01-22T04:56:52.377Z,99.51
2019-01-22T04:57:52.908Z,99.88
2019-01-22T04:58:54.160Z,99.79
2019-01-22T04:59:54.867Z,99.88
2019-01-22T05:00:56.123Z,99.99
2019-01-22T05:01:56.369Z,99.99
2019-01-22T05:02:56.787Z,99.99
2019-01-22T05:03:58.483Z,99.51
2019-01-22T05:04:59.136Z,99.99
2019-01-22T05:05:58.700Z,99.6
2019-01-22T05:06:59.124Z,99.41
2019-01-22T05:07:59.545Z,99.51
2019-01-22T05:09:00.081Z,99.79
2019-01-22T05:10:00.848Z,99.98
2019-01-22T05:11:01.413Z,99.79
2019-01-22T05:12:02.119Z,99.99
2019-01-22T05:13:03.270Z,99.99
2019-01-22T05:14:04.943Z,99.99
2019-01-22T05:15:04.939Z,99.99
2019-01-22T05:16:06.311Z,99.99
2019-01-22T05:17:07.136Z,99.6
2019-01-22T05:18:07.544Z,99.79
2019-01-22T05:19:07.956Z,99.6
2019-01-22T05:20:09.196Z,99.04
2019-01-22T05:21:09.898Z,99.99
2019-01-22T05:22:10.588Z,99.04
2019-01-22T05:23:12.396Z,99.6
2019-01-22T05:24:19.614Z,99.7
2019-01-22T05:24:24.262Z,99.7
2019-01-22T05:25:25.667Z,99.79
2019-01-22T05:26:25.880Z,99.6
2019-01-22T05:27:26.579Z,99.7
2019-01-22T05:28:27.005Z,99.79
2019-01-22T05:29:27.985Z,99.98
2019-01-22T05:30:28.884Z,99.6
2019-01-22T05:31:29.163Z,99.7
2019-01-22T05:32:30.413Z,99.41
2019-01-22T05:33:30.415Z,99.7
2019-01-22T05:34:31.779Z,99.99
2019-01-22T05:35:32.598Z,99.88
2019-01-22T05:36:33.501Z,99.6
2019-01-22T05:37:33.918Z,99.7
2019-01-22T05:38:34.896Z,99.7
2019-01-22T05:39:35.419Z,99.6
2019-01-22T05:40:36.394Z,99.88
2019-01-22T05:41:36.645Z,99.13
2019-01-22T05:42:37.340Z,99.6
2019-01-22T05:43:38.379Z,99.6
2019-01-22T05:44:39.357Z,99.51
2019-01-22T05:45:39.903Z,99.7
2019-01-22T05:46:40.888Z,99.79
2019-01-22T05:47:41.302Z,99.79
2019-01-22T05:48:42.832Z,99.99
2019-01-22T05:49:43.110Z,99.79
2019-01-22T05:50:43.812Z,99.51
2019-01-22T05:51:44.540Z,99.51
2019-01-22T05:52:45.228Z,99.13
2019-01-22T05:53:45.702Z,99.22
2019-01-22T05:54:46.398Z,99.13
2019-01-22T05:55:46.854Z,99.04
2019-01-22T05:56:47.259Z,99.32
2019-01-22T05:57:47.727Z,99.04
2019-01-22T05:58:48.133Z,99.51
2019-01-22T05:59:49.830Z,99.13
2019-01-22T06:00:50.849Z,99.41
2019-01-22T06:01:51.268Z,99.51
2019-01-22T06:02:52.232Z,99.04
2019-01-22T06:03:52.919Z,98.66
2019-01-22T06:04:53.631Z,98.85
2019-01-22T06:05:54.482Z,98.85
2019-01-22T06:06:55.436Z,98.38
2019-01-22T06:07:56.564Z,98.66
2019-01-22T06:08:57.970Z,98.38
2019-01-22T06:09:58.378Z,98.28
2019-01-22T06:10:59.506Z,98.57
2019-01-22T06:11:59.741Z,98.47
2019-01-22T06:13:00.144Z,98.1
2019-01-22T06:14:01.549Z,98.42
2019-01-22T06:15:02.510Z,98.71
2019-01-22T06:16:03.326Z,98.71
2019-01-22T06:17:03.841Z,98.19
2019-01-22T06:18:04.539Z,97.95
2019-01-22T06:19:04.944Z,97.76
2019-01-22T06:20:05.629Z,97.72
2019-01-22T06:21:05.756Z,98.38
2019-01-22T06:22:07.170Z,98.1
2019-01-22T06:23:08.581Z,98.19
2019-01-22T06:24:09.386Z,98.47
2019-01-22T06:25:10.375Z,98.14
2019-01-22T06:25:55.668Z,97.67
2019-01-22T06:26:56.483Z,97.85
2019-01-22T06:27:57.162Z,98.1
2019-01-22T06:28:58.125Z,98.47
2019-01-22T06:29:59.532Z,98.57
2019-01-22T06:30:59.844Z,98.47
2019-01-22T06:32:00.823Z,98.28
2019-01-22T06:33:02.065Z,98.28
2019-01-22T06:34:02.305Z,98.75
2019-01-22T06:35:03.272Z,98.47
2019-01-22T06:36:03.519Z,98.19
2019-01-22T06:37:04.335Z,98.1
2019-01-22T06:38:05.018Z,98.1
2019-01-22T06:39:05.698Z,98
2019-01-22T06:40:06.675Z,97.62
2019-01-22T06:41:07.083Z,98
2019-01-22T06:42:07.766Z,98.1
2019-01-22T06:43:08.553Z,98.47
2019-01-22T06:44:09.698Z,98.1
2019-01-22T06:45:10.382Z,97.91
2019-01-22T06:46:11.064Z,97.81
2019-01-22T06:47:12.428Z,98.19
2019-01-22T06:48:12.889Z,98.28
2019-01-22T06:49:14.124Z,98.57
2019-01-22T06:50:14.645Z,98.38
2019-01-22T06:51:15.329Z,98.19
2019-01-22T06:52:15.734Z,97.72
2019-01-22T06:53:16.152Z,98
2019-01-22T06:54:17.120Z,98.1
2019-01-22T06:55:17.804Z,98
2019-01-22T06:56:18.208Z,97.91
2019-01-22T06:57:19.325Z,97.43
2019-01-22T06:58:20.737Z,97.53
2019-01-22T06:59:21.255Z,97.81
2019-01-22T07:00:21.661Z,97.34
2019-01-22T07:01:23.081Z,97.91
2019-01-22T07:02:23.486Z,98.1
2019-01-22T07:03:23.895Z,98.19
2019-01-22T07:04:24.596Z,98.57
2019-01-22T07:05:25.304Z,98.19
2019-01-22T07:06:26.835Z,98.28
2019-01-22T07:07:26.854Z,97.53
2019-01-22T07:08:28.537Z,98
2019-01-22T07:09:29.221Z,97.53
2019-01-22T07:10:30.354Z,97.91
2019-01-22T07:11:31.512Z,97.81
2019-01-22T07:12:36.031Z,97.91
2019-01-22T07:12:45.739Z,98.1
2019-01-22T07:12:59.735Z,98.28
2019-01-22T07:13:13.029Z,98.1
2019-01-22T07:13:23.918Z,98.1
2019-01-22T07:13:38.031Z,98.1
2019-01-22T07:14:37.051Z,98.47
2019-01-22T07:15:37.734Z,98.1
2019-01-22T07:16:39.175Z,97.91
2019-01-22T07:17:39.304Z,98.28
2019-01-22T07:18:39.711Z,98.47
2019-01-22T07:19:40.433Z,98.57
2019-01-22T07:20:41.094Z,98.38
2019-01-22T07:21:41.506Z,98.57
2019-01-22T07:22:44.968Z,98
2019-01-22T07:22:55.323Z,97.81
2019-01-22T07:23:54.780Z,98.1
2019-01-22T07:24:55.807Z,98.1
2019-01-22T07:25:56.263Z,97.62
2019-01-22T07:26:57.001Z,98
2019-01-22T07:27:57.684Z,97.81
2019-01-22T07:28:58.090Z,98.38
2019-01-22T07:29:58.573Z,98
2019-01-22T07:30:58.728Z,98.57
2019-01-22T07:31:59.419Z,98.38
2019-01-22T07:33:00.658Z,98.75
2019-01-22T07:34:01.479Z,98.47
2019-01-22T07:35:04.844Z,98.38
2019-01-22T07:36:04.417Z,98.1
2019-01-22T07:37:05.030Z,98.1
2019-01-22T07:38:06.894Z,98
2019-01-22T07:39:06.724Z,98.1
2019-01-22T07:40:07.965Z,97.72
2019-01-22T07:41:09.384Z,98.1
2019-01-22T07:42:11.927Z,98.66
2019-01-22T07:43:10.653Z,98.19
2019-01-22T07:44:11.470Z,98.66
2019-01-22T07:45:11.876Z,98
2019-01-22T07:46:12.325Z,98.28
2019-01-22T07:47:13.010Z,98.66
2019-01-22T07:48:14.140Z,98.47
2019-01-22T07:49:18.202Z,98.57
2019-01-22T07:49:26.684Z,98.85
2019-01-22T07:50:27.223Z,98.28
2019-01-22T07:51:27.517Z,98.57
2019-01-22T07:52:31.955Z,98.75
2019-01-22T07:52:44.312Z,98.1
2019-01-22T07:52:56.124Z,98.38
2019-01-22T07:53:55.963Z,98.28
2019-01-22T07:55:00.362Z,99.04
2019-01-22T07:55:10.545Z,98.85
2019-01-22T07:56:08.873Z,98.66
2019-01-22T07:57:09.840Z,98.75
2019-01-22T07:58:10.545Z,99.6
2019-01-22T07:59:13.763Z,99.98
2019-01-22T08:00:13.756Z,98.94
2019-01-22T08:01:14.889Z,99.32
2019-01-22T08:02:16.053Z,99.51
2019-01-22T08:03:17.018Z,99.7
2019-01-22T08:04:17.428Z,99.41
2019-01-22T08:05:18.845Z,99.32
2019-01-22T08:06:19.667Z,99.98
2019-01-22T08:07:19.799Z,99.99
2019-01-22T08:08:20.485Z,99.99
2019-01-22T08:09:25.164Z,99.99
2019-01-22T08:09:33.432Z,99.99
2019-01-22T08:10:34.218Z,99.99
2019-01-22T08:11:34.624Z,99.99
2019-01-22T08:12:37.739Z,99.99
2019-01-22T08:13:38.413Z,99.99
2019-01-22T08:14:39.825Z,99.99
2019-01-22T08:15:40.791Z,99.99
2019-01-22T08:16:40.922Z,99.99
2019-01-22T08:17:42.055Z,99.99
2019-01-22T08:18:45.966Z,99.99
2019-01-22T08:18:55.027Z,99.99
2019-01-22T08:19:56.145Z,99.99
2019-01-22T08:20:56.841Z,99.99
2019-01-22T08:21:58.018Z,99.99
2019-01-22T08:22:58.157Z,99.99
2019-01-22T08:23:59.329Z,99.99
2019-01-22T08:25:04.253Z,99.99
2019-01-22T08:25:11.409Z,99.99
2019-01-22T08:26:11.672Z,99.99
2019-01-22T08:27:15.422Z,99.99
2019-01-22T08:27:24.473Z,99.99
2019-01-22T08:27:39.795Z,99.99
2019-01-22T08:27:53.013Z,99.99
2019-01-22T08:28:06.772Z,99.99
2019-01-22T08:29:09.808Z,99.99
2019-01-22T08:29:19.657Z,99.99
2019-01-22T08:30:19.734Z,99.99
2019-01-22T08:31:20.282Z,99.99
2019-01-22T08:32:20.417Z,99.99
2019-01-22T08:33:21.394Z,99.99
2019-01-22T08:34:23.427Z,99.99
2019-01-22T08:35:24.045Z,99.99
2019-01-22T08:36:24.733Z,99.99
2019-01-22T08:37:27.418Z,99.99
2019-01-22T08:38:26.821Z,99.99
2019-01-22T08:39:27.476Z,99.99
2019-01-22T08:40:28.120Z,99.99
2019-01-22T08:41:29.537Z,99.99
2019-01-22T08:42:29.946Z,99.99
2019-01-22T08:43:31.386Z,99.99
2019-01-22T08:44:32.079Z,99.99
2019-01-22T08:45:36.577Z,99.99
2019-01-22T08:45:45.751Z,99.99
2019-01-22T08:46:46.244Z,99.99
2019-01-22T08:47:49.456Z,99.99
2019-01-22T08:48:49.449Z,99.99
2019-01-22T08:49:50.863Z,99.99
2019-01-22T08:50:51.276Z,99.99
2019-01-22T08:51:51.977Z,99.99
2019-01-22T08:52:53.385Z,99.99
2019-01-22T08:53:53.847Z,99.99
2019-01-22T08:54:54.045Z,99.99
2019-01-22T08:55:54.731Z,99.99
2019-01-22T08:56:55.601Z,99.99
2019-01-22T08:57:56.287Z,99.99
2019-01-22T08:58:56.813Z,99.99
2019-01-22T08:59:56.952Z,99.99
2019-01-22T09:00:59.856Z,99.99
2019-01-22T09:01:59.549Z,99.99
2019-01-22T09:02:59.966Z,99.99
2019-01-22T09:04:00.660Z,99.99
2019-01-22T09:05:01.635Z,99.99
2019-01-22T09:06:05.659Z,99.99
2019-01-22T09:06:15.015Z,99.99
2019-01-22T09:07:15.082Z,99.99
2019-01-22T09:08:15.489Z,99.99
2019-01-22T09:09:16.191Z,99.99
2019-01-22T09:10:16.613Z,99.99
2019-01-22T09:11:17.024Z,99.99
2019-01-22T09:12:17.718Z,99.99
2019-01-22T09:13:18.689Z,99.99
2019-01-22T09:14:19.430Z,99.99
2019-01-22T09:15:21.170Z,99.99
2019-01-22T09:15:33.715Z,99.99
2019-01-22T09:15:45.904Z,99.99
2019-01-22T09:16:44.954Z,99.99
2019-01-22T09:17:45.195Z,99.99
2019-01-22T09:18:45.327Z,99.99
2019-01-22T09:19:45.736Z,99.99
2019-01-22T09:20:47.041Z,99.99
2019-01-22T09:20:59.587Z,99.99
2019-01-22T09:21:58.780Z,99.99
2019-01-22T09:22:59.472Z,99.99
2019-01-22T09:24:02.392Z,99.99
2019-01-22T09:25:01.089Z,99.99
2019-01-22T09:26:02.332Z,99.99
2019-01-22T09:27:03.021Z,99.99
2019-01-22T09:28:03.430Z,99.99
2019-01-22T09:29:04.564Z,99.99
2019-01-22T09:30:05.261Z,99.99
2019-01-22T09:31:05.673Z,99.99
2019-01-22T09:32:06.505Z,99.99
2019-01-22T09:33:07.198Z,99.99
2019-01-22T09:34:08.173Z,99.99
2019-01-22T09:35:11.380Z,99.99
2019-01-22T09:36:12.793Z,99.89
2019-01-22T09:37:16.949Z,99.99
2019-01-22T09:37:26.905Z,99.99
2019-01-22T09:38:28.023Z,99.99
2019-01-22T09:39:28.752Z,99.99
2019-01-22T09:40:29.725Z,99.99
2019-01-22T09:41:30.419Z,99.38
2019-01-22T09:42:31.552Z,99.47
2019-01-22T09:43:32.243Z,98.9
2019-01-22T09:44:33.210Z,97.96
2019-01-22T09:45:33.673Z,97.67
2019-01-22T09:46:35.425Z,97.58
2019-01-22T09:46:47.422Z,97.72
2019-01-22T09:47:47.157Z,97.72
2019-01-22T09:48:48.287Z,96.69
2019-01-22T09:49:48.741Z,95.93
2019-01-22T09:50:49.879Z,94.79
2019-01-22T09:51:51.300Z,93.37
2019-01-22T09:52:51.715Z,92.8
2019-01-22T09:53:52.852Z,91.81
2019-01-22T09:54:53.544Z,91.43
2019-01-22T09:56:01.371Z,89.54
2019-01-22T09:56:05.144Z,89.82
2019-01-22T09:57:05.699Z,89.73
2019-01-22T09:58:06.394Z,89.16
2019-01-22T09:59:07.529Z,88.68
2019-01-22T10:00:08.219Z,86.51
2019-01-22T10:01:08.917Z,86.51
2019-01-22T10:02:09.612Z,84.19
2019-01-22T10:03:13.168Z,84.66
2019-01-22T10:03:24.566Z,84.75
2019-01-22T10:03:36.983Z,84.66
2019-01-22T10:03:47.716Z,84.09
2019-01-22T10:04:46.909Z,85.51
2019-01-22T10:05:47.599Z,82.67
2019-01-22T10:06:47.852Z,81.25
2019-01-22T10:07:48.990Z,81.63
2019-01-22T10:08:49.693Z,82.1
2019-01-22T10:09:51.112Z,81.96
2019-01-22T10:10:51.249Z,82.63
2019-01-22T10:11:52.085Z,82.53
2019-01-22T10:12:53.077Z,82.91
2019-01-22T10:13:53.495Z,83.48
2019-01-22T10:14:54.608Z,84.48
2019-01-22T10:15:55.576Z,84.95
2019-01-22T10:16:55.996Z,85.28
2019-01-22T10:17:56.971Z,84.81
2019-01-22T10:18:58.402Z,84.23
2019-01-22T10:20:00.430Z,84.05
2019-01-22T10:20:12.770Z,84.71
2019-01-22T10:21:12.762Z,85.38
2019-01-22T10:22:13.179Z,85.85
2019-01-22T10:23:15.103Z,86.47
2019-01-22T10:24:17.508Z,87.98
2019-01-22T10:25:17.656Z,87.98
2019-01-22T10:26:21.259Z,88.07
2019-01-22T10:27:19.781Z,87.08
2019-01-22T10:28:20.479Z,86.32
2019-01-22T10:29:20.912Z,84.71
2019-01-22T10:30:24.104Z,83.86
2019-01-22T10:31:26.153Z,83.76
2019-01-22T10:31:37.647Z,83.52
2019-01-22T10:32:39.285Z,81.44
2019-01-22T10:32:50.815Z,80.58
2019-01-22T10:33:04.021Z,79.74
2019-01-22T10:33:16.057Z,79.64
2019-01-22T10:34:14.803Z,78.88
2019-01-22T10:35:14.994Z,78.31
2019-01-22T10:36:15.686Z,79.36
2019-01-22T10:37:16.110Z,81.01
2019-01-22T10:38:16.827Z,78.26
2019-01-22T10:39:19.141Z,76.36
2019-01-22T10:40:22.592Z,74.75
2019-01-22T10:40:31.890Z,74.47
2019-01-22T10:41:32.141Z,75.04
2019-01-22T10:42:33.558Z,75.13
2019-01-22T10:43:34.529Z,74.56
2019-01-22T10:44:36.471Z,74.37
2019-01-22T10:44:48.452Z,74.37
2019-01-22T10:45:48.239Z,74.37
2019-01-22T10:46:48.678Z,73.71
2019-01-22T10:47:50.743Z,72
2019-01-22T10:48:02.901Z,72.67
2019-01-22T10:49:01.778Z,72.1
2019-01-22T10:50:02.779Z,72.67
2019-01-22T10:51:03.198Z,72
2019-01-22T10:52:06.860Z,71.95
2019-01-22T10:52:17.359Z,72.61
2019-01-22T10:53:16.397Z,69.96
2019-01-22T10:54:17.091Z,69.57
2019-01-22T10:55:18.670Z,70.15
2019-01-22T10:56:20.503Z,70.24
2019-01-22T10:57:20.165Z,71.06
2019-01-22T10:58:21.302Z,71.25
2019-01-22T10:59:22.001Z,73.05
2019-01-22T11:00:22.822Z,72.96
2019-01-22T11:01:24.219Z,71.09
2019-01-22T11:02:23.958Z,70.15
2019-01-22T11:03:24.552Z,70.72
2019-01-22T11:04:24.967Z,71.34
2019-01-22T11:05:26.386Z,71.06
2019-01-22T11:06:26.815Z,71.72
2019-01-22T11:07:27.511Z,72.1
2019-01-22T11:08:27.950Z,72.48
2019-01-22T11:09:28.367Z,72.38
2019-01-22T11:10:28.788Z,70.87
2019-01-22T11:11:29.953Z,70.53
2019-01-22T11:12:30.233Z,70.58
2019-01-22T11:13:31.447Z,71.34
2019-01-22T11:14:31.814Z,71.25
2019-01-22T11:15:32.542Z,71.81
2019-01-22T11:16:33.800Z,72.57
2019-01-22T11:17:34.503Z,71.06
2019-01-22T11:18:35.012Z,72.57
2019-01-22T11:19:35.710Z,71.28
2019-01-22T11:20:38.929Z,70.72
2019-01-22T11:20:49.388Z,70.2
2019-01-22T11:21:48.769Z,70.87
2019-01-22T11:22:49.471Z,73.14
2019-01-22T11:23:50.503Z,72.42
2019-01-22T11:24:54.169Z,71.47
2019-01-22T11:25:55.146Z,70.15
2019-01-22T11:26:55.596Z,69.67
2019-01-22T11:27:56.948Z,70.11
2019-01-22T11:28:57.099Z,70.68
2019-01-22T11:29:57.519Z,71.72
2019-01-22T11:30:57.949Z,71.44
2019-01-22T11:31:59.637Z,72.29
2019-01-22T11:33:00.332Z,72
2019-01-22T11:34:00.585Z,73.61
2019-01-22T11:35:01.614Z,73.99
2019-01-22T11:36:02.402Z,73.9
2019-01-22T11:37:03.263Z,72.33
2019-01-22T11:38:03.965Z,71.19
2019-01-22T11:38:16.322Z,71
2019-01-22T11:39:17.658Z,69.77
2019-01-22T11:40:18.072Z,68.29
2019-01-22T11:41:19.057Z,68.35
2019-01-22T11:42:19.475Z,68.25
2019-01-22T11:43:23.680Z,67.3
2019-01-22T11:43:34.298Z,67.49
2019-01-22T11:44:33.783Z,68.44
2019-01-22T11:45:34.489Z,69.17
2019-01-22T11:46:35.333Z,69.82
2019-01-22T11:47:35.750Z,70.58
2019-01-22T11:48:36.532Z,72.96
2019-01-22T11:49:37.523Z,72.48
2019-01-22T11:50:38.227Z,71.34
2019-01-22T11:51:39.284Z,73.05
2019-01-22T11:52:39.624Z,71.81
2019-01-22T11:53:40.124Z,70.87
2019-01-22T11:54:40.544Z,70.97
2019-01-22T11:55:40.990Z,71.5
2019-01-22T11:56:42.161Z,73.3
2019-01-22T11:57:42.968Z,74.33
2019-01-22T11:58:43.744Z,73.49
2019-01-22T11:59:43.885Z,73.86
2019-01-22T12:00:44.769Z,75.28
2019-01-22T12:01:47.734Z,73.77
2019-01-22T12:02:46.401Z,75.19
2019-01-22T12:03:47.832Z,74.05
2019-01-22T12:04:48.440Z,73.96
2019-01-22T12:05:53.979Z,74.24
2019-01-22T12:06:49.398Z,73.86
2019-01-22T12:07:50.659Z,74.24
2019-01-22T12:08:50.799Z,75
2019-01-22T12:09:51.222Z,76.04
2019-01-22T12:10:52.361Z,76.23
2019-01-22T12:11:53.102Z,75.95
2019-01-22T12:12:53.525Z,75.47
2019-01-22T12:14:06.993Z,75.57
2019-01-22T12:15:07.024Z,75.85
2019-01-22T12:16:07.717Z,75.85
2019-01-22T12:17:08.430Z,75.76
2019-01-22T12:18:09.127Z,76.04
2019-01-22T12:19:09.267Z,77.37
2019-01-22T12:20:10.774Z,76.32
2019-01-22T12:21:13.460Z,76.8
2019-01-22T12:21:26.588Z,77.94
2019-01-22T12:22:26.119Z,76.42
2019-01-22T12:23:26.811Z,75.57
2019-01-22T12:24:27.238Z,76.04
2019-01-22T12:25:28.410Z,75.66
2019-01-22T12:26:29.494Z,75.66
2019-01-22T12:27:29.767Z,75.76
2019-01-22T12:28:30.493Z,76.51
2019-01-22T12:29:30.923Z,75.76
2019-01-22T12:30:31.628Z,75.95